createdAt,value
2023-05-05T00:03:15.116Z,10.62
2023-05-05T00:08:19.274Z,10.72
2023-05-05T00:13:24.669Z,10.84
2023-05-05T00:18:28.421Z,10.97
2023-05-05T00:23:32.211Z,10.95
2023-05-05T00:28:37.045Z,10.90
2023-05-05T00:33:40.524Z,10.64
2023-05-05T00:38:44.052Z,10.52
2023-05-05T00:43:48.970Z,10.54
2023-05-05T00:48:53.355Z,10.39
2023-05-05T00:53:57.277Z,10.28
2023-05-05T00:59:03.914Z,10.24
2023-05-05T01:04:07.355Z,10.22
2023-05-05T01:09:19.664Z,10.23
2023-05-05T01:14:29.694Z,10.32
2023-05-05T01:20:00.213Z,10.20
2023-05-05T01:25:18.025Z,10.03
2023-05-05T01:30:40.687Z,9.89
2023-05-05T01:35:49.435Z,9.70
2023-05-05T01:40:59.109Z,9.46
2023-05-05T01:46:04.646Z,9.42
2023-05-05T01:51:11.635Z,9.41
2023-05-05T01:56:16.951Z,9.18
2023-05-05T02:01:22.748Z,9.18
2023-05-05T02:06:32.672Z,9.03
2023-05-05T02:11:39.158Z,8.94
2023-05-05T02:16:44.280Z,8.96
2023-05-05T02:21:49.157Z,8.97
2023-05-05T02:26:54.462Z,8.80
2023-05-05T02:32:03.682Z,9.01
2023-05-05T02:37:12.182Z,8.99
2023-05-05T02:42:21.741Z,8.57
2023-05-05T02:47:35.631Z,8.51
2023-05-05T02:52:41.421Z,8.43
2023-05-05T02:57:51.952Z,8.32
2023-05-05T03:03:06.854Z,8.28
2023-05-05T03:08:18.548Z,8.44
2023-05-05T03:13:25.555Z,8.47
2023-05-05T03:18:31.402Z,8.58
2023-05-05T03:23:39.320Z,8.69
2023-05-05T03:28:48.856Z,8.73
2023-05-05T03:33:57.857Z,8.80
2023-05-05T03:39:07.627Z,8.85
2023-05-05T03:44:11.475Z,8.89
2023-05-05T03:49:15.314Z,9.02
2023-05-05T03:54:22.273Z,9.16
2023-05-05T03:59:26.075Z,9.42
2023-05-05T04:04:29.964Z,9.49
2023-05-05T04:09:35.538Z,9.62
2023-05-05T04:14:40.128Z,9.74
2023-05-05T04:19:45.002Z,9.65
2023-05-05T04:24:49.970Z,9.64
2023-05-05T04:29:54.196Z,9.92
2023-05-05T04:34:57.948Z,10.12
2023-05-05T04:40:03.439Z,10.28
2023-05-05T04:45:10.320Z,10.59
2023-05-05T04:50:14.881Z,10.66
2023-05-05T04:55:19.937Z,10.81
2023-05-05T05:00:24.116Z,10.89
2023-05-05T05:05:27.835Z,11.31
2023-05-05T05:10:33.073Z,11.52
2023-05-05T05:15:38.121Z,11.52
2023-05-05T05:20:42.118Z,11.64
2023-05-05T05:25:47.280Z,11.91
2023-05-05T05:30:53.738Z,12.48
2023-05-05T05:35:57.760Z,12.79
2023-05-05T05:41:07.459Z,12.89
2023-05-05T05:46:12.628Z,12.66
2023-05-05T05:51:18.185Z,12.86
2023-05-05T05:56:23.713Z,12.50
2023-05-05T06:01:28.009Z,12.56
2023-05-05T06:06:32.143Z,12.86
2023-05-05T06:11:37.279Z,12.82
2023-05-05T06:16:41.146Z,13.05
2023-05-05T06:21:48.736Z,13.78
2023-05-05T06:26:53.935Z,14.62
2023-05-05T06:31:57.330Z,14.92
2023-05-05T06:37:00.724Z,15.28
2023-05-05T06:42:05.604Z,15.48
2023-05-05T06:47:09.294Z,15.26
2023-05-05T06:52:13.140Z,15.93
2023-05-05T06:57:18.248Z,16.23
2023-05-05T07:02:22.534Z,16.53
2023-05-05T07:07:27.060Z,16.61
2023-05-05T07:12:32.208Z,16.57
2023-05-05T07:17:35.853Z,16.82
2023-05-05T07:22:39.244Z,17.59
2023-05-05T07:27:44.098Z,17.87
2023-05-05T07:32:47.818Z,18.42
2023-05-05T07:37:51.494Z,18.16
2023-05-05T07:42:56.223Z,18.37
2023-05-05T07:47:59.698Z,18.79
2023-05-05T07:53:13.563Z,18.83
2023-05-05T07:58:19.160Z,19.46
2023-05-05T08:03:24.849Z,19.55
2023-05-05T08:08:28.406Z,20.13
2023-05-05T08:13:33.514Z,19.55
2023-05-05T08:18:38.472Z,19.18
2023-05-05T08:23:42.164Z,18.37
2023-05-05T08:28:47.226Z,18.70
2023-05-05T08:33:50.936Z,19.83
2023-05-05T08:38:54.645Z,20.54
2023-05-05T08:43:59.843Z,20.07
2023-05-05T08:49:04.899Z,18.93
2023-05-05T08:54:11.766Z,19.90
2023-05-05T08:59:20.136Z,19.15
2023-05-05T09:04:24.129Z,19.95
2023-05-05T09:09:28.386Z,20.09
2023-05-05T09:14:33.197Z,20.79
2023-05-05T09:19:57.988Z,21.05
2023-05-05T09:25:01.623Z,22.21
2023-05-05T09:30:09.727Z,22.26
2023-05-05T09:35:13.308Z,22.47
2023-05-05T09:40:18.950Z,20.78
2023-05-05T09:45:28.467Z,21.08
2023-05-05T09:50:43.490Z,21.66
2023-05-05T09:55:56.975Z,22.23
2023-05-05T10:01:02.111Z,21.38
2023-05-05T10:06:07.925Z,22.26
2023-05-05T10:11:11.620Z,22.61
2023-05-05T10:16:19.606Z,23.13
2023-05-05T10:21:24.656Z,23.08
2023-05-05T10:26:39.386Z,22.55
2023-05-05T10:32:18.830Z,21.03
2023-05-05T10:37:38.868Z,22.87
2023-05-05T10:42:44.247Z,20.83
2023-05-05T10:47:53.292Z,20.70
2023-05-05T10:53:18.746Z,20.86
2023-05-05T10:58:55.462Z,23.07
2023-05-05T11:04:50.217Z,22.80
2023-05-05T11:10:06.240Z,22.37
2023-05-05T11:21:24.501Z,22.13
2023-05-05T11:26:51.368Z,20.77
2023-05-05T11:32:12.612Z,20.52
2023-05-05T11:37:17.674Z,22.53
2023-05-05T11:42:26.766Z,23.61
2023-05-05T11:47:32.674Z,23.41
2023-05-05T11:52:37.870Z,21.93
2023-05-05T11:57:41.598Z,20.94
2023-05-05T12:02:45.237Z,20.97
2023-05-05T12:07:57.684Z,23.40
2023-05-05T12:13:01.147Z,22.33
2023-05-05T12:18:06.534Z,22.26
2023-05-05T12:23:12.873Z,23.00
2023-05-05T12:28:16.695Z,22.68
2023-05-05T12:33:20.667Z,21.11
2023-05-05T12:38:25.539Z,21.04
2023-05-05T12:43:30.854Z,20.67
2023-05-05T12:48:35.232Z,22.21
2023-05-05T12:53:40.113Z,22.59
2023-05-05T12:58:49.551Z,21.62
2023-05-05T13:04:10.014Z,20.83
2023-05-05T13:09:25.965Z,22.72
2023-05-05T13:14:30.736Z,23.77
2023-05-05T13:19:35.615Z,22.32
2023-05-05T13:24:50.605Z,21.45
2023-05-05T13:29:56.050Z,21.77
2023-05-05T13:34:59.504Z,20.63
2023-05-05T13:40:04.683Z,20.77
2023-05-05T13:45:09.322Z,20.67
2023-05-05T13:50:15.698Z,20.76
2023-05-05T13:56:26.664Z,20.50
2023-05-05T14:02:25.193Z,20.16
2023-05-05T14:07:41.408Z,20.25
2023-05-05T14:12:54.883Z,21.20
2023-05-05T14:18:11.689Z,21.92
2023-05-05T14:23:18.757Z,21.21
2023-05-05T14:28:34.348Z,20.80
2023-05-05T14:33:58.365Z,20.61
2023-05-05T14:39:14.688Z,20.16
2023-05-05T14:44:22.791Z,20.07
2023-05-05T14:49:30.741Z,19.98
2023-05-05T14:54:40.763Z,19.66
2023-05-05T15:00:06.297Z,19.71
2023-05-05T15:11:47.827Z,20.02
2023-05-05T15:16:53.190Z,20.00
2023-05-05T15:21:56.570Z,20.10
2023-05-05T15:27:00.034Z,19.76
2023-05-05T15:32:05.424Z,19.38
2023-05-05T15:37:09.332Z,19.08
2023-05-05T15:42:13.204Z,19.07
2023-05-05T15:47:18.172Z,18.95
2023-05-05T15:52:21.789Z,19.21
2023-05-05T15:57:25.301Z,19.09
2023-05-05T16:02:30.228Z,18.95
2023-05-05T16:07:33.881Z,18.92
2023-05-05T16:12:37.342Z,18.79
2023-05-05T16:17:42.392Z,18.75
2023-05-05T16:22:46.041Z,18.75
2023-05-05T16:27:49.906Z,18.66
2023-05-05T16:32:54.971Z,18.61
2023-05-05T16:37:58.660Z,18.58
2023-05-05T16:43:02.043Z,18.39
2023-05-05T16:48:09.233Z,18.42
2023-05-05T16:53:12.792Z,18.36
2023-05-05T16:58:16.513Z,18.21
2023-05-05T17:03:22.580Z,18.06
2023-05-05T17:08:26.054Z,17.82
2023-05-05T17:13:29.810Z,17.56
2023-05-05T17:18:35.253Z,17.37
2023-05-05T17:23:38.676Z,17.18
2023-05-05T17:28:42.376Z,16.94
2023-05-05T17:33:47.516Z,16.83
2023-05-05T17:38:51.028Z,16.68
2023-05-05T17:43:54.427Z,16.53
2023-05-05T17:49:02.809Z,16.39
2023-05-05T17:54:07.859Z,16.24
2023-05-05T17:59:11.365Z,16.15
2023-05-05T18:04:16.310Z,16.03
2023-05-05T18:09:20.732Z,15.98
2023-05-05T18:14:25.148Z,15.87
2023-05-05T18:19:30.066Z,15.84
2023-05-05T18:24:33.748Z,15.66
2023-05-05T18:29:37.730Z,15.35
2023-05-05T18:34:42.904Z,15.06
2023-05-05T18:39:46.636Z,14.91
2023-05-05T18:44:50.129Z,14.65
2023-05-05T18:49:54.968Z,14.53
2023-05-05T18:54:59.703Z,14.36
2023-05-05T19:00:03.684Z,14.23
2023-05-05T19:05:11.684Z,13.98
2023-05-05T19:10:15.855Z,13.80
2023-05-05T19:15:19.806Z,13.79
2023-05-05T19:20:24.733Z,13.92
2023-05-05T19:25:28.232Z,13.92
2023-05-05T19:30:31.665Z,14.07
2023-05-05T19:35:36.552Z,14.05
2023-05-05T19:40:40.708Z,13.77
2023-05-05T19:45:44.446Z,13.40
2023-05-05T19:50:49.595Z,13.22
2023-05-05T19:55:53.116Z,13.33
2023-05-05T20:00:56.796Z,13.08
2023-05-05T20:06:02.148Z,12.95
2023-05-05T20:11:05.567Z,12.96
2023-05-05T20:16:09.962Z,13.00
2023-05-05T20:21:15.007Z,12.87
2023-05-05T20:26:18.644Z,12.67
2023-05-05T20:31:22.151Z,12.56
2023-05-05T20:36:27.803Z,12.41
2023-05-05T20:41:31.462Z,12.11
2023-05-05T20:46:34.869Z,12.02
2023-05-05T20:51:39.703Z,12.14
2023-05-05T20:56:43.232Z,12.17
2023-05-05T21:01:46.701Z,12.17
2023-05-05T21:06:51.803Z,12.50
2023-05-05T21:11:55.679Z,12.61
2023-05-05T21:16:59.526Z,12.52
2023-05-05T21:22:04.921Z,12.50
2023-05-05T21:27:08.338Z,12.47
2023-05-05T21:32:12.818Z,11.88
2023-05-05T21:37:17.729Z,11.77
2023-05-05T21:42:21.190Z,11.53
2023-05-05T21:47:24.725Z,11.55
2023-05-05T21:52:29.608Z,11.71
2023-05-05T21:57:33.483Z,11.72
2023-05-05T22:02:37.099Z,11.80
2023-05-05T22:07:42.097Z,11.74
2023-05-05T22:12:45.896Z,11.70
2023-05-05T22:17:49.447Z,11.71
2023-05-05T22:22:54.883Z,11.66
2023-05-05T22:27:58.639Z,11.61
2023-05-05T22:33:02.106Z,11.75
2023-05-05T22:38:07.463Z,11.88
2023-05-05T22:43:10.968Z,11.88
2023-05-05T22:48:15.103Z,11.84
2023-05-05T22:53:20.090Z,11.95
2023-05-05T22:58:23.514Z,11.95
2023-05-05T23:03:27.220Z,11.93
2023-05-05T23:08:32.072Z,11.94
2023-05-05T23:13:35.612Z,11.69
2023-05-05T23:18:39.286Z,11.75
2023-05-05T23:23:44.233Z,11.86
2023-05-05T23:28:48.053Z,11.80
2023-05-05T23:33:51.514Z,11.80
2023-05-05T23:38:56.450Z,11.91
2023-05-05T23:43:59.896Z,12.05
2023-05-05T23:49:03.665Z,12.10
2023-05-05T23:54:08.505Z,12.11
2023-05-05T23:59:12.131Z,11.94
